Airport View

Enter AWOS ICAO identifier for current METAR.

ex. KFNL

KSAC 051353Z 19009KT 10SM BKN012 16/13 A2989 RMK AO2 SLP121 T01560128

5 Aug 2020 14:16

Phone: 916-421-0923

Other Area AWOS: KMHR - KMCC - KSMF - KEDU

TAF KSAC 051135Z 0512/0612 19012KT P6SM BKN015 TEMPO 0512/0514 SCT015 FM051700 21013G19KT P6SM FEW250 FM060600 19010G16KT P6SM SKC